Sunday, November 19, 2017, 11:18 PM EST
Back to Local

KPHL, Philadelphia International Airpt

Location: Philadelphia, PA, United States Lat: 39.867
Local Time: 11:18 PM EST ( 4:18 GMT) Lon: -75.233
Time Zone: US/Eastern Elev: 19 ft

Show me the last for .
Show Decoded

2017-11-19 22:54 METAR KPHL 200354Z 25010KT 10SM FEW065 05/M04 A2988 RMK AO2 SLP116 T00501044 =
2017-11-19 21:54 METAR KPHL 200254Z 27012KT 10SM FEW065 06/M04 A2987 RMK AO2 SLP113 T00561044
                 53026 =
2017-11-19 20:54 METAR KPHL 200154Z 28013KT 10SM FEW065 07/M04 A2983 RMK AO2 PK WND 26026/0119
                 SLP102 T00671039 =
2017-11-19 19:54 METAR KPHL 200054Z 28016G22KT 10SM SCT040 BKN065 08/M03 A2981 RMK AO2 SLP095
                 T00781028 =
2017-11-19 18:54 METAR KPHL 192354Z 27011KT 10SM BKN060 08/M04 A2979 RMK AO2 SLP087 T00831039
                 10122 20083 51038 =
2017-11-19 17:54 METAR KPHL 192254Z 27017G23KT 10SM BKN060 08/M04 A2976 RMK AO2 PK WND 28027/2200
                 SLP076 T00831044 =
2017-11-19 16:54 METAR KPHL 192154Z 27013G25KT 10SM BKN055 09/M04 A2972 RMK AO2 PK WND 28033/2117
                 SLP063 T00891044 =
2017-11-19 15:54 METAR KPHL 192054Z 29015G24KT 10SM BKN055 10/M03 A2968 RMK AO2 PK WND 28035/2032
                 SLP049 T01001033 53025 =
2017-11-19 14:54 METAR KPHL 191954Z 29019G30KT 10SM BKN050 11/M02 A2964 RMK AO2 PK WND 28031/1940
                 SLP036 T01061022 =
2017-11-19 13:54 METAR KPHL 191854Z 31018G35KT 10SM BKN050 11/M02 A2962 RMK AO2 PK WND 32035/1845
                 SLP028 T01111022 =
2017-11-19 12:54 METAR KPHL 191754Z 29021G27KT 10SM BKN050 12/M01 A2961 RMK AO2 PK WND 28030/1741
                 SLP025 T01171011 10122 20100 51019 =
2017-11-19 11:54 METAR KPHL 191654Z 30019G36KT 10SM BKN048 12/M01 A2960 RMK AO2 PK WND 28040/1618
                 SLP021 T01171011 =
2017-11-19 10:54 METAR KPHL 191554Z 28024G32KT 10SM BKN048 12/00 A2958 RMK AO2 PK WND 29039/1527
                 SLP015 T01170000 =
2017-11-19 09:54 METAR KPHL 191454Z 30027G37KT 10SM BKN045 BKN090 11/00 A2955 RMK AO2 PK WND
                 29037/1449 SLP005 T01060000 51060 =
2017-11-19 08:54 METAR KPHL 191354Z 28021G36KT 10SM SCT040 SCT090 SCT160 11/01 A2951 RMK AO2 PK
                 WND 28038/1318 SLP991 T01060011 =
2017-11-19 07:54 METAR KPHL 191254Z 29023G35KT 10SM SCT040 BKN090 10/01 A2945 RMK AO2 PK WND
                 27036/1243 SLP973 T01000011 =
2017-11-19 06:54 METAR KPHL 191154Z 28027G36KT 10SM FEW029 SCT035 BKN090 12/05 A2937 RMK AO2 PK
                 WND 27037/1139 RAE23 PRESRR SLP946 WSHFT 1135 FROPA P0000 60033 70036 T01220050
                 10167 20122 53029 =
2017-11-19 06:39 METAR KPHL 191139Z 28028G37KT 10SM SCT029 BKN080 14/08 A2934 RMK AO2 PK WND
                 27037/1139 RAE23 PRESRR WSHFT 1135 FROPA P0000 T01390083 =
2017-11-19 05:58 METAR KPHL 191058Z 23018G29KT 10SM -RA FEW012 OVC060 14/13 A2929 RMK AO2 P0000
                 T01440128 =
2017-11-19 05:54 METAR KPHL 191054Z 23017G29KT 8SM -RA FEW013 SCT026 OVC075 14/13 A2929 RMK AO2
                 PK WND 23029/1052 SLP918 P0006 T01440128 =
2017-11-19 05:52 METAR KPHL 191052Z 23018G29KT 8SM -RA FEW013 SCT026 OVC075 14/13 A2929 RMK AO2
                 PK WND 23029/1052 P0006 =
2017-11-19 05:40 METAR KPHL 191040Z 25015KT 6SM RA BR BKN013 OVC026 15/13 A2930 RMK AO2 PK WND
                 22027/1006 P0004 T01500133 =
2017-11-19 05:06 METAR KPHL 191006Z 21018G27KT 10SM -RA BKN013 OVC028 15/13 A2929 RMK AO2 PK WND
                 22027/1006 P0000 T01500133 =
2017-11-19 04:54 METAR KPHL 190954Z 21017G25KT 7SM -RA BKN015 BKN029 OVC065 15/13 A2929 RMK AO2
                 PK WND 19027/0932 SLP917 P0007 T01500133 =
2017-11-19 04:51 METAR KPHL 190951Z 21017G25KT 7SM -RA BKN015 BKN029 OVC065 15/13 A2928 RMK AO2
                 PK WND 19027/0932 P0007 =
2017-11-19 04:28 METAR KPHL 190928Z 20018G25KT 6SM RA BR BKN015 OVC028 15/13 A2930 RMK AO2 P0002
                 T01500133 =
2017-11-19 04:05 METAR KPHL 190905Z 20016G21KT 10SM -RA BKN015 BKN031 OVC070 15/13 A2929 RMK AO2
                 P0000 T01500128 =
2017-11-19 03:54 METAR KPHL 190854Z 20013KT 10SM -RA SCT015 SCT040 OVC070 15/13 A2929 RMK AO2 PK
                 WND 20027/0829 SLP917 P0007 60020 T01500128 58028 =
2017-11-19 03:27 METAR KPHL 190827Z 20017G26KT 7SM RA BKN015 OVC039 15/13 A2930 RMK AO2 PK WND
                 19026/0818 P0005 T01500128 =
2017-11-19 03:23 METAR KPHL 190823Z 20017G26KT 7SM RA SCT015 OVC039 15/13 A2931 RMK AO2 PK WND
                 19026/0818 P0004 T01500128 =
2017-11-19 02:54 METAR KPHL 190754Z 21014G24KT 6SM RA BR FEW013 SCT039 OVC060 15/13 A2934 RMK AO2
                 PK WND 21026/0722 SLP936 P0012 T01500128 =
2017-11-19 02:49 METAR KPHL 190749Z 21018G24KT 6SM RA BR FEW015 OVC060 15/13 A2935 RMK AO2 PK WND
                 21026/0722 P0010 =
2017-11-19 02:34 METAR KPHL 190734Z 21015G23KT 8SM -RA FEW015 OVC065 15/12 A2935 RMK AO2 PK WND
                 21026/0722 P0005 T01500122 =
2017-11-19 01:54 METAR KPHL 190654Z 21020G28KT 10SM -RA SCT065 OVC100 16/12 A2937 RMK AO2 PK WND
                 20028/0653 SLP944 P0001 T01560117 =
2017-11-19 00:54 METAR KPHL 190554Z 21017G27KT 10SM -RA BKN080 OVC110 16/11 A2937 RMK AO2 PK WND
                 21030/0539 RAB49 SLP945 P0000 60000 T01610106 10167 20106 56035 =
2017-11-18 23:54 METAR KPHL 190454Z 21018G25KT 10SM FEW080 OVC120 16/10 A2940 RMK AO2 PK WND
                 20029/0420 RAB08E43 SLP955 P0000 T01610100 401610011 =

Support USWX by starting your Amazon purchase here.